General Aviation Weather

Text Reports

Enter one or more of the following location identifiers separated by a space:

Zip Code, Four-Character ICAO or Three-Character IATA airport codes.

METAR - Aviation Routine Weather Report
VTCC - Chiang Mai,
Updated at 8:30 PM GMT on July 12, 2014 (3:30 AM ICT):
METAR VTCC 122030Z 02005KT 9000 -RA FEW018 BKN035 25/24 Q1007 A2973 NOSIG
TAF - Terminal Area Forecast
VTCC - Chiang Mai,
Updated at 8:30 PM GMT on July 12, 2014 (3:30 AM ICT):
TAF VTCC 121700Z NIL=
Decoded:
ID: VTCC   Chiang Mai(CIV/, TH
REPORT TIME: 12 17: 0
INITIAL WX
   WEATHER: NIL
   COMMENTS: = 

PIREP - Pilot Weather Report
VTCC - Chiang Mai,
Updated at 8:30 PM GMT on July 12, 2014 (3:30 AM ICT):
No PIREP is currently available for this location.
AIRMET - Airmens Meteorological Information
VTCC - Chiang Mai,
Updated at 8:30 PM GMT on July 12, 2014 (3:30 AM ICT):
No AIRMET is currently available for this location.
SIGMET - Significant Meteorological Information
VTCC - Chiang Mai,
Updated at 8:30 PM GMT on July 12, 2014 (3:30 AM ICT):
No SIGMET is currently available for this location.
NOTAM - Notice to Airmen
VTCC - Chiang Mai,
Updated at 8:30 PM GMT on July 12, 2014 (3:30 AM ICT):
No NOTAM is currently available for this location.
Forecast Area
VTCC - Chiang Mai,
Updated at 8:30 PM GMT on July 12, 2014 (3:30 AM ICT):
No NOTAM is currently available for this location.
Aviation Weather Maps